createdAt,value
2019-05-25T00:00:27.446Z,11.50
2019-05-25T00:02:57.359Z,11.50
2019-05-25T00:05:26.966Z,11.50
2019-05-25T00:07:57.745Z,11.60
2019-05-25T00:10:27.421Z,11.60
2019-05-25T00:12:57.146Z,11.60
2019-05-25T00:15:26.782Z,11.70
2019-05-25T00:17:56.547Z,11.70
2019-05-25T00:20:26.182Z,11.80
2019-05-25T00:22:55.776Z,11.80
2019-05-25T00:25:25.405Z,11.80
2019-05-25T00:27:55.016Z,11.80
2019-05-25T00:30:24.776Z,11.90
2019-05-25T00:32:54.539Z,11.90
2019-05-25T00:35:24.292Z,12.00
2019-05-25T00:37:53.924Z,12.00
2019-05-25T00:40:23.567Z,12.00
2019-05-25T00:42:53.183Z,12.10
2019-05-25T00:45:22.991Z,12.10
2019-05-25T00:47:52.667Z,12.20
2019-05-25T00:50:22.298Z,12.20
2019-05-25T00:52:51.905Z,12.20
2019-05-25T00:55:21.555Z,12.20
2019-05-25T00:57:51.169Z,12.20
2019-05-25T01:06:10.798Z,12.20
2019-05-25T01:08:40.513Z,12.20
2019-05-25T01:11:10.134Z,12.10
2019-05-25T01:13:39.738Z,12.10
2019-05-25T01:16:10.298Z,12.10
2019-05-25T01:18:40.006Z,12.00
2019-05-25T01:21:09.637Z,12.00
2019-05-25T01:23:39.231Z,12.00
2019-05-25T01:26:08.898Z,11.90
2019-05-25T01:28:38.511Z,11.90
2019-05-25T01:31:08.185Z,11.90
2019-05-25T01:33:37.778Z,11.80
2019-05-25T01:36:07.385Z,11.80
2019-05-25T01:38:37.364Z,11.80
2019-05-25T01:41:07.000Z,11.80
2019-05-25T01:43:36.586Z,11.80
2019-05-25T01:46:06.202Z,11.80
2019-05-25T01:48:36.021Z,11.80
2019-05-25T01:51:05.648Z,11.80
2019-05-25T01:53:35.271Z,11.80
2019-05-25T01:56:04.877Z,11.80
2019-05-25T01:58:34.475Z,11.80
2019-05-25T02:01:04.162Z,11.70
2019-05-25T02:03:33.754Z,11.70
2019-05-25T02:06:03.383Z,11.70
2019-05-25T02:08:33.239Z,11.70
2019-05-25T02:11:02.850Z,11.70
2019-05-25T02:13:32.458Z,11.70
2019-05-25T02:16:02.168Z,11.60
2019-05-25T02:18:31.762Z,11.50
2019-05-25T02:21:01.370Z,11.50
2019-05-25T02:23:30.982Z,11.40
2019-05-25T02:26:00.598Z,11.30
2019-05-25T02:28:30.197Z,11.30
2019-05-25T02:30:59.803Z,11.30
2019-05-25T02:33:29.402Z,11.20
2019-05-25T02:35:59.002Z,11.20
2019-05-25T02:38:28.649Z,11.20
2019-05-25T02:40:58.239Z,11.20
2019-05-25T02:43:27.843Z,11.10
2019-05-25T02:45:57.543Z,11.10
2019-05-25T02:48:27.261Z,11.10
2019-05-25T02:50:57.058Z,11.10
2019-05-25T02:53:26.757Z,11.10
2019-05-25T02:55:56.390Z,11.10
2019-05-25T02:58:26.082Z,11.10
2019-05-25T03:00:56.150Z,11.10
2019-05-25T03:03:25.937Z,11.10
2019-05-25T03:05:57.560Z,11.00
2019-05-25T03:08:27.335Z,11.00
2019-05-25T03:10:58.639Z,11.00
2019-05-25T03:13:31.714Z,11.00
2019-05-25T03:16:01.359Z,10.90
2019-05-25T03:18:31.051Z,10.90
2019-05-25T03:21:00.688Z,10.90
2019-05-25T03:23:30.452Z,10.90
2019-05-25T03:26:00.078Z,10.90
2019-05-25T03:28:29.687Z,10.80
2019-05-25T03:30:59.319Z,10.80
2019-05-25T03:33:29.890Z,10.80
2019-05-25T03:35:59.535Z,10.90
2019-05-25T03:38:29.362Z,10.90
2019-05-25T03:40:59.194Z,10.90
2019-05-25T03:43:28.813Z,10.90
2019-05-25T03:45:58.426Z,11.00
2019-05-25T03:48:28.063Z,11.00
2019-05-25T03:50:58.337Z,11.00
2019-05-25T03:53:27.994Z,11.10
2019-05-25T03:56:05.756Z,11.20
2019-05-25T03:58:28.926Z,11.20
2019-05-25T04:00:58.619Z,11.30
2019-05-25T04:03:28.230Z,11.30
2019-05-25T04:05:57.845Z,11.30
2019-05-25T04:08:27.467Z,11.40
2019-05-25T04:10:57.070Z,11.30
2019-05-25T04:13:26.656Z,11.40
2019-05-25T04:15:56.283Z,11.30
2019-05-25T04:18:25.894Z,11.30
2019-05-25T04:20:55.519Z,11.30
2019-05-25T04:23:25.131Z,11.30
2019-05-25T04:25:54.726Z,11.30
2019-05-25T04:28:25.467Z,11.30
2019-05-25T04:30:55.104Z,11.30
2019-05-25T04:33:24.713Z,11.30
2019-05-25T04:35:54.511Z,11.30
2019-05-25T04:38:24.116Z,11.30
2019-05-25T04:40:54.806Z,11.40
2019-05-25T04:43:24.410Z,11.50
2019-05-25T04:45:54.047Z,11.50
2019-05-25T04:48:23.655Z,11.60
2019-05-25T04:51:12.670Z,11.70
2019-05-25T04:53:42.252Z,11.70
2019-05-25T04:56:11.871Z,11.80
2019-05-25T04:58:41.494Z,11.80
2019-05-25T05:01:11.115Z,11.90
2019-05-25T05:03:40.732Z,12.00
2019-05-25T05:06:11.306Z,12.10
2019-05-25T05:08:40.915Z,12.20
2019-05-25T05:11:10.703Z,12.30
2019-05-25T05:13:40.328Z,12.30
2019-05-25T05:16:09.924Z,12.40
2019-05-25T05:18:39.529Z,12.30
2019-05-25T05:21:09.126Z,12.40
2019-05-25T05:23:38.745Z,12.40
2019-05-25T05:26:09.546Z,12.40
2019-05-25T05:28:39.158Z,12.40
2019-05-25T05:31:22.787Z,12.30
2019-05-25T05:33:40.263Z,12.20
2019-05-25T05:36:12.009Z,12.30
2019-05-25T05:38:42.546Z,12.30
2019-05-25T05:41:13.014Z,12.40
2019-05-25T05:43:45.251Z,12.60
2019-05-25T05:46:16.999Z,12.60
2019-05-25T05:48:50.496Z,12.80
2019-05-25T05:51:21.487Z,12.90
2019-05-25T05:53:55.691Z,13.00
2019-05-25T05:56:25.298Z,13.10
2019-05-25T05:58:56.018Z,13.20
2019-05-25T06:01:26.730Z,13.60
2019-05-25T06:03:56.443Z,14.10
2019-05-25T06:06:26.062Z,14.10
2019-05-25T06:08:55.663Z,14.00
2019-05-25T06:11:25.262Z,14.00
2019-05-25T06:13:54.934Z,13.90
2019-05-25T06:16:24.536Z,13.90
2019-05-25T06:18:54.142Z,13.80
2019-05-25T06:21:23.754Z,13.60
2019-05-25T06:23:53.462Z,13.50
2019-05-25T06:26:23.183Z,13.50
2019-05-25T06:28:52.877Z,13.50
2019-05-25T06:31:22.582Z,13.40
2019-05-25T06:33:52.179Z,13.30
2019-05-25T06:36:21.798Z,13.40
2019-05-25T06:38:51.633Z,13.30
2019-05-25T06:41:21.222Z,13.30
2019-05-25T06:43:50.821Z,13.20
2019-05-25T06:46:20.488Z,13.20
2019-05-25T06:48:50.109Z,13.30
2019-05-25T06:51:19.711Z,13.40
2019-05-25T06:53:49.333Z,13.40
2019-05-25T06:56:19.027Z,13.40
2019-05-25T06:58:48.639Z,13.50
2019-05-25T07:01:18.247Z,13.50
2019-05-25T07:03:47.867Z,13.50
2019-05-25T07:06:17.480Z,13.50
2019-05-25T07:08:47.182Z,13.50
2019-05-25T07:11:16.861Z,13.50
2019-05-25T07:13:46.500Z,13.50
2019-05-25T07:16:16.098Z,13.50
2019-05-25T07:18:45.762Z,13.40
2019-05-25T07:21:15.508Z,13.50
2019-05-25T07:23:45.162Z,13.60
2019-05-25T07:26:14.772Z,13.70
2019-05-25T07:28:44.454Z,13.80
2019-05-25T07:31:14.098Z,13.80
2019-05-25T07:33:43.736Z,14.00
2019-05-25T07:36:13.403Z,14.40
2019-05-25T07:38:43.098Z,14.60
2019-05-25T07:41:12.714Z,14.70
2019-05-25T07:43:42.298Z,14.60
2019-05-25T07:46:11.939Z,14.40
2019-05-25T07:48:41.610Z,14.30
2019-05-25T07:51:11.272Z,14.40
2019-05-25T07:53:40.885Z,14.60
2019-05-25T07:56:10.483Z,14.70
2019-05-25T07:58:40.090Z,14.80
2019-05-25T08:01:09.719Z,15.00
2019-05-25T08:03:39.980Z,15.00
2019-05-25T08:06:09.814Z,15.00
2019-05-25T08:08:39.523Z,15.10
2019-05-25T08:11:09.275Z,15.00
2019-05-25T08:13:38.914Z,14.90
2019-05-25T08:16:08.549Z,15.10
2019-05-25T08:18:38.188Z,15.10
2019-05-25T08:21:07.863Z,15.10
2019-05-25T08:23:37.491Z,15.20
2019-05-25T08:26:07.120Z,15.00
2019-05-25T08:28:36.752Z,14.90
2019-05-25T08:31:06.410Z,14.90
2019-05-25T08:33:36.102Z,14.90
2019-05-25T08:36:05.808Z,15.00
2019-05-25T08:38:35.486Z,15.00
2019-05-25T08:41:05.113Z,15.00
2019-05-25T08:43:34.832Z,15.10
2019-05-25T08:46:04.566Z,15.20
2019-05-25T08:48:34.181Z,15.10
2019-05-25T08:51:03.888Z,15.20
2019-05-25T08:53:41.662Z,15.30
2019-05-25T08:56:04.931Z,15.40
2019-05-25T08:58:47.461Z,15.50
2019-05-25T09:01:05.894Z,15.80
2019-05-25T09:03:35.527Z,16.00
2019-05-25T09:06:05.195Z,16.20
2019-05-25T09:08:34.804Z,16.30
2019-05-25T09:11:04.590Z,16.50
2019-05-25T09:13:34.230Z,16.60
2019-05-25T09:16:03.976Z,16.70
2019-05-25T09:18:33.618Z,16.90
2019-05-25T09:21:03.222Z,16.90
2019-05-25T09:23:32.847Z,16.80
2019-05-25T09:26:02.450Z,16.60
2019-05-25T09:28:32.094Z,16.60
2019-05-25T09:31:01.687Z,16.60
2019-05-25T09:33:31.307Z,16.70
2019-05-25T09:36:00.980Z,16.60
2019-05-25T09:38:30.566Z,16.60
2019-05-25T09:41:00.184Z,16.50
2019-05-25T09:43:29.790Z,16.40
2019-05-25T09:45:59.430Z,16.30
2019-05-25T09:48:29.043Z,16.10
2019-05-25T09:51:15.293Z,16.10
2019-05-25T09:53:40.509Z,16.30
2019-05-25T09:56:10.118Z,16.50
2019-05-25T09:58:39.741Z,16.80
2019-05-25T10:01:09.458Z,17.00
2019-05-25T10:03:39.169Z,17.20
2019-05-25T10:06:12.946Z,17.10
2019-05-25T10:08:40.471Z,17.10
2019-05-25T10:11:10.102Z,17.20
2019-05-25T10:13:39.738Z,17.50
2019-05-25T10:16:09.409Z,17.90
2019-05-25T10:18:39.038Z,18.30
2019-05-25T10:21:08.655Z,18.40
2019-05-25T10:23:38.287Z,18.70
2019-05-25T10:26:07.988Z,18.60
2019-05-25T10:28:37.609Z,18.60
2019-05-25T10:31:07.225Z,18.80
2019-05-25T10:33:36.914Z,19.00
2019-05-25T10:36:06.681Z,19.40
2019-05-25T10:38:36.313Z,19.70
2019-05-25T10:41:06.251Z,19.80
2019-05-25T10:43:35.887Z,19.80
2019-05-25T10:46:05.562Z,19.60
2019-05-25T10:48:35.202Z,19.50
2019-05-25T10:51:04.938Z,19.50
2019-05-25T10:53:35.527Z,19.30
2019-05-25T10:56:05.373Z,19.30
2019-05-25T10:58:35.039Z,19.40
2019-05-25T11:01:04.750Z,19.50
2019-05-25T11:03:34.425Z,19.50
2019-05-25T11:06:04.031Z,19.60
2019-05-25T11:08:33.638Z,19.50
2019-05-25T11:11:03.355Z,19.30
2019-05-25T11:13:32.975Z,19.20
2019-05-25T11:16:02.591Z,19.20
2019-05-25T11:18:32.195Z,19.20
2019-05-25T11:21:01.799Z,19.20
2019-05-25T11:23:31.435Z,19.30
2019-05-25T11:26:01.175Z,19.20
2019-05-25T11:28:30.788Z,19.10
2019-05-25T11:31:00.409Z,18.90
2019-05-25T11:33:30.003Z,18.50
2019-05-25T11:35:59.647Z,18.50
2019-05-25T11:38:29.367Z,18.30
2019-05-25T11:40:58.954Z,18.40
2019-05-25T11:43:28.558Z,18.50
2019-05-25T11:45:58.176Z,18.60
2019-05-25T11:48:27.795Z,18.60
2019-05-25T11:50:58.358Z,18.60
2019-05-25T11:53:27.974Z,18.60
2019-05-25T11:55:57.730Z,18.80
2019-05-25T11:58:27.342Z,18.70
2019-05-25T12:00:57.086Z,18.60
2019-05-25T12:03:26.766Z,18.40
2019-05-25T12:05:56.378Z,18.10
2019-05-25T12:08:25.995Z,18.10
2019-05-25T12:10:55.630Z,18.10
2019-05-25T12:13:25.215Z,18.00
2019-05-25T12:15:54.876Z,17.80
2019-05-25T12:18:24.565Z,17.80
2019-05-25T12:20:54.202Z,17.70
2019-05-25T12:23:23.836Z,17.70
2019-05-25T12:25:53.473Z,17.80
2019-05-25T12:28:23.157Z,17.70
2019-05-25T12:30:52.768Z,17.50
2019-05-25T12:33:23.358Z,17.50
2019-05-25T12:35:52.971Z,17.70
2019-05-25T12:38:22.581Z,18.00
2019-05-25T12:40:53.902Z,18.20
2019-05-25T12:43:23.522Z,18.40
2019-05-25T12:45:53.168Z,18.40
2019-05-25T12:48:22.779Z,18.40
2019-05-25T12:50:52.547Z,18.30
2019-05-25T12:53:22.139Z,18.30
2019-05-25T12:55:51.919Z,18.30
2019-05-25T12:58:23.713Z,18.20
2019-05-25T13:00:56.077Z,18.30
2019-05-25T13:03:24.286Z,18.30
2019-05-25T13:05:54.186Z,18.30
2019-05-25T13:08:23.814Z,18.20
2019-05-25T13:10:53.419Z,18.40
2019-05-25T13:13:23.086Z,18.60
2019-05-25T13:15:52.697Z,18.90
2019-05-25T13:18:22.387Z,19.10
2019-05-25T13:20:52.095Z,19.30
2019-05-25T13:23:21.714Z,19.60
2019-05-25T13:25:51.365Z,20.00
2019-05-25T13:28:21.584Z,20.10
2019-05-25T13:30:51.255Z,20.30
2019-05-25T13:33:20.880Z,20.40
2019-05-25T13:35:50.526Z,20.50
2019-05-25T13:38:20.146Z,20.60
2019-05-25T13:40:49.748Z,20.70
2019-05-25T13:43:19.550Z,20.70
2019-05-25T13:45:50.121Z,20.60
2019-05-25T13:48:19.739Z,20.40
2019-05-25T13:50:49.337Z,20.30
2019-05-25T13:53:18.941Z,20.10
2019-05-25T13:55:48.645Z,19.90
2019-05-25T13:58:18.252Z,19.50
2019-05-25T14:00:48.170Z,19.40
2019-05-25T14:03:17.781Z,19.40
2019-05-25T14:05:47.402Z,19.30
2019-05-25T14:08:17.106Z,19.30
2019-05-25T14:10:46.709Z,19.50
2019-05-25T14:13:16.352Z,19.70
2019-05-25T14:15:45.982Z,19.80
2019-05-25T14:18:15.587Z,20.00
2019-05-25T14:20:45.192Z,20.20
2019-05-25T14:23:14.806Z,20.30
2019-05-25T14:25:44.414Z,20.50
2019-05-25T14:28:14.019Z,20.60
2019-05-25T14:30:43.648Z,20.60
2019-05-25T14:33:13.256Z,20.60
2019-05-25T14:35:42.935Z,20.80
2019-05-25T14:38:12.563Z,20.60
2019-05-25T14:40:42.184Z,20.40
2019-05-25T14:43:11.815Z,20.50
2019-05-25T14:45:41.614Z,20.60
2019-05-25T14:48:11.218Z,20.80
2019-05-25T14:50:41.576Z,21.00
2019-05-25T14:53:11.188Z,21.20
2019-05-25T14:55:41.896Z,21.20
2019-05-25T14:58:12.950Z,21.10
2019-05-25T15:00:42.790Z,20.80
2019-05-25T15:03:12.466Z,20.60
2019-05-25T15:05:43.060Z,20.40
2019-05-25T15:08:12.746Z,20.20
2019-05-25T15:10:42.467Z,19.90
2019-05-25T15:13:12.102Z,19.60
2019-05-25T15:15:41.783Z,19.30
2019-05-25T15:18:11.382Z,19.30
2019-05-25T15:20:40.994Z,19.30
2019-05-25T15:23:10.677Z,19.40
2019-05-25T15:25:40.293Z,19.50
2019-05-25T15:28:09.998Z,19.70
2019-05-25T15:30:39.770Z,19.70
2019-05-25T15:33:09.525Z,19.70
2019-05-25T15:35:39.115Z,19.70
2019-05-25T15:38:08.939Z,19.80
2019-05-25T15:40:39.212Z,19.80
2019-05-25T15:43:08.954Z,19.70
2019-05-25T15:45:38.569Z,19.60
2019-05-25T15:48:08.217Z,19.60
2019-05-25T15:50:38.794Z,19.40
2019-05-25T15:53:08.623Z,19.30
2019-05-25T15:55:38.407Z,19.10
2019-05-25T15:58:08.051Z,19.10
2019-05-25T16:00:46.228Z,19.10
2019-05-25T16:03:16.762Z,19.10
2019-05-25T16:05:47.683Z,19.00
2019-05-25T16:08:18.426Z,18.90
2019-05-25T16:10:48.332Z,18.80
2019-05-25T16:13:18.077Z,18.90
2019-05-25T16:15:47.742Z,18.90
2019-05-25T16:18:17.375Z,18.80
2019-05-25T16:20:47.979Z,18.80
2019-05-25T16:23:17.647Z,18.70
2019-05-25T16:25:47.267Z,18.70
2019-05-25T16:28:16.892Z,18.70
2019-05-25T16:30:47.656Z,18.60
2019-05-25T16:33:17.275Z,18.70
2019-05-25T16:35:46.886Z,18.70
2019-05-25T16:38:16.524Z,18.60
2019-05-25T16:40:46.322Z,18.60
2019-05-25T16:43:16.279Z,18.40
2019-05-25T16:45:45.906Z,18.20
2019-05-25T16:48:15.516Z,18.10
2019-05-25T16:50:45.137Z,18.10
2019-05-25T16:53:14.740Z,18.00
2019-05-25T16:55:44.396Z,18.00
2019-05-25T16:58:14.050Z,18.10
2019-05-25T17:00:43.690Z,18.10
2019-05-25T17:03:26.843Z,18.20
2019-05-25T17:05:44.638Z,18.30
2019-05-25T17:08:14.235Z,18.20
2019-05-25T17:10:43.938Z,18.10
2019-05-25T17:13:13.742Z,18.00
2019-05-25T17:15:44.121Z,18.00
2019-05-25T17:18:13.735Z,18.10
2019-05-25T17:20:43.371Z,18.00
2019-05-25T17:23:12.981Z,17.90
2019-05-25T17:25:42.609Z,17.80
2019-05-25T17:28:12.221Z,17.80
2019-05-25T17:30:43.877Z,17.70
2019-05-25T17:33:13.854Z,17.70
2019-05-25T17:35:43.649Z,17.80
2019-05-25T17:38:13.514Z,17.70
2019-05-25T17:40:43.176Z,17.70
2019-05-25T17:43:13.810Z,17.50
2019-05-25T17:45:43.426Z,17.50
2019-05-25T17:48:13.039Z,17.50
2019-05-25T17:50:42.664Z,17.50
2019-05-25T17:53:12.289Z,17.50
2019-05-25T17:55:41.969Z,17.50
2019-05-25T17:58:11.735Z,17.50
2019-05-25T18:00:43.704Z,17.50
2019-05-25T18:03:13.616Z,17.50
2019-05-25T18:05:43.429Z,17.50
2019-05-25T18:08:13.178Z,17.50
2019-05-25T18:10:52.635Z,17.50
2019-05-25T18:13:14.333Z,17.40
2019-05-25T18:15:44.018Z,17.40
2019-05-25T18:18:13.683Z,17.40
2019-05-25T18:20:43.463Z,17.40
2019-05-25T18:23:13.213Z,17.30
2019-05-25T18:25:42.905Z,17.30
2019-05-25T18:28:12.546Z,17.20
2019-05-25T18:30:42.247Z,17.20
2019-05-25T18:33:11.958Z,17.20
2019-05-25T18:35:41.570Z,17.20
2019-05-25T18:38:11.262Z,17.10
2019-05-25T18:40:40.872Z,17.00
2019-05-25T18:43:10.582Z,17.00
2019-05-25T18:45:40.216Z,16.90
2019-05-25T18:48:09.823Z,16.90
2019-05-25T18:50:39.454Z,16.80
2019-05-25T18:53:09.067Z,16.70
2019-05-25T18:55:38.694Z,16.60
2019-05-25T18:58:08.419Z,16.60
2019-05-25T19:00:38.034Z,16.60
2019-05-25T19:03:07.737Z,16.50
2019-05-25T19:05:37.423Z,16.40
2019-05-25T19:08:07.319Z,16.40
2019-05-25T19:10:36.947Z,16.30
2019-05-25T19:13:06.630Z,16.20
2019-05-25T19:15:36.399Z,16.20
2019-05-25T19:18:06.097Z,16.10
2019-05-25T19:20:35.763Z,16.00
2019-05-25T19:23:05.510Z,15.80
2019-05-25T19:25:35.123Z,15.70
2019-05-25T19:28:04.718Z,15.60
2019-05-25T19:30:34.391Z,15.50
2019-05-25T19:33:04.419Z,15.40
2019-05-25T19:35:34.081Z,15.30
2019-05-25T19:38:03.878Z,15.10
2019-05-25T19:40:33.502Z,15.00
2019-05-25T19:43:03.107Z,14.90
2019-05-25T19:45:33.094Z,14.90
2019-05-25T19:48:02.795Z,14.80
2019-05-25T19:50:32.418Z,14.70
2019-05-25T19:53:02.039Z,14.70
2019-05-25T19:55:31.658Z,14.70
2019-05-25T19:58:01.316Z,14.70
2019-05-25T20:00:30.996Z,14.60
2019-05-25T20:03:00.642Z,14.60
2019-05-25T20:05:30.230Z,14.50
2019-05-25T20:07:59.851Z,14.40
2019-05-25T20:10:29.474Z,14.40
2019-05-25T20:13:00.487Z,14.30
2019-05-25T20:15:30.194Z,14.30
2019-05-25T20:17:59.871Z,14.20
2019-05-25T20:20:29.598Z,14.20
2019-05-25T20:22:59.226Z,14.20
2019-05-25T20:25:28.901Z,14.20
2019-05-25T20:27:59.502Z,14.10
2019-05-25T20:30:30.115Z,14.10
2019-05-25T20:32:59.794Z,14.10
2019-05-25T20:35:33.447Z,14.10
2019-05-25T20:38:00.755Z,14.00
2019-05-25T20:40:30.436Z,14.00
2019-05-25T20:43:00.075Z,13.90
2019-05-25T20:45:29.722Z,13.80
2019-05-25T20:47:59.365Z,13.70
2019-05-25T20:50:29.126Z,13.60
2019-05-25T20:52:58.750Z,13.50
2019-05-25T20:55:28.403Z,13.50
2019-05-25T20:57:58.051Z,13.40
2019-05-25T21:00:27.680Z,13.30
2019-05-25T21:03:06.198Z,13.30
2019-05-25T21:05:28.652Z,13.30
2019-05-25T21:07:58.289Z,13.20
2019-05-25T21:10:27.971Z,13.20
2019-05-25T21:12:57.655Z,13.10
2019-05-25T21:15:28.286Z,13.10
2019-05-25T21:17:57.993Z,13.10
2019-05-25T21:20:27.645Z,13.00
2019-05-25T21:22:57.296Z,12.90
2019-05-25T21:25:27.098Z,13.00
2019-05-25T21:27:56.746Z,12.90
2019-05-25T21:30:26.450Z,12.90
2019-05-25T21:32:56.062Z,12.90
2019-05-25T21:35:25.694Z,12.70
2019-05-25T21:37:55.367Z,12.70
2019-05-25T21:40:24.985Z,12.60
2019-05-25T21:42:54.659Z,12.60
2019-05-25T21:45:24.280Z,12.50
2019-05-25T21:47:56.295Z,12.50
2019-05-25T21:50:25.296Z,12.50
2019-05-25T21:52:54.914Z,12.40
2019-05-25T21:55:24.510Z,12.40
2019-05-25T21:57:54.128Z,12.30
2019-05-25T22:00:27.135Z,12.30
2019-05-25T22:02:58.419Z,12.20
2019-05-25T22:05:30.719Z,12.20
2019-05-25T22:07:59.379Z,12.10
2019-05-25T22:10:29.075Z,12.10
2019-05-25T22:12:58.715Z,12.10
2019-05-25T22:15:28.329Z,12.10
2019-05-25T22:17:57.945Z,12.00
2019-05-25T22:20:27.543Z,12.00
2019-05-25T22:22:57.171Z,12.00
2019-05-25T22:25:26.789Z,11.90
2019-05-25T22:27:56.468Z,11.90
2019-05-25T22:30:26.247Z,11.80
2019-05-25T22:32:56.038Z,11.80
2019-05-25T22:35:25.746Z,11.80
2019-05-25T22:37:55.377Z,11.70
2019-05-25T22:40:25.047Z,11.60
2019-05-25T22:42:54.646Z,11.60
2019-05-25T22:45:24.394Z,11.50
2019-05-25T22:47:54.031Z,11.40
2019-05-25T22:50:23.710Z,11.40
2019-05-25T22:52:53.350Z,11.30
2019-05-25T22:55:22.958Z,11.30
2019-05-25T22:57:52.575Z,11.20
2019-05-25T23:00:22.357Z,11.20
2019-05-25T23:02:52.005Z,11.10
2019-05-25T23:05:22.923Z,11.00
2019-05-25T23:07:52.617Z,11.00
2019-05-25T23:10:22.461Z,11.00
2019-05-25T23:12:52.101Z,11.00
2019-05-25T23:15:22.181Z,11.00
2019-05-25T23:17:52.795Z,11.00
2019-05-25T23:20:22.418Z,10.90
2019-05-25T23:22:52.048Z,10.90
2019-05-25T23:25:21.662Z,10.90
2019-05-25T23:27:51.269Z,10.90
2019-05-25T23:30:21.354Z,10.90
2019-05-25T23:32:51.110Z,10.90
2019-05-25T23:35:20.881Z,10.80
2019-05-25T23:37:50.495Z,10.80
2019-05-25T23:40:20.719Z,10.80
2019-05-25T23:42:50.322Z,10.80
2019-05-25T23:45:20.305Z,10.80
2019-05-25T23:47:49.922Z,10.80
2019-05-25T23:50:19.732Z,10.80
2019-05-25T23:52:49.735Z,10.80
2019-05-25T23:55:19.679Z,10.70
2019-05-25T23:57:49.446Z,10.80
